Christian Pohl

Olheiro - Köln
4 Abr 2027
Domingo
Processo

Personalidade

Adaptabilidade (8) Ambição (18) Controvérsia (5) Lealdade (15) Pressão (9) Profissionalismo (11) Espírito Esportivo (6) Temperamento (11)

Perfil

Estilo de Treinamento Democrático
Licença Continental B
Determinação 8
Gestão de Pessoas 8
Motivação 11
Disciplina 12
Satisfação no Trabalho
100%
Fadiga
0%
Função Olheiro
Salário 72.9K p/s
Contrato 14.03.2030

Desempenho

Comportamento Bom
Eficácia do Treinamento
54%
Desenvolvimento do Jogador
70%
Prevenção de Lesões
70%
Implementação Tática
35%

Eventos Recentes

Avaliou um jogador agora
Participou de uma reunião de recrutamento agora
Avaliou um jogador agora
Participou de uma reunião de recrutamento 7d atrás
Avaliou um jogador 7d atrás
Avaliou um jogador 7d atrás
Avaliou um jogador 7d atrás
Avaliou um jogador 7d atrás

Monitorando agora

99
Jogador Clube Status Habilidade Confiança Observado Última observação Último voto
Camillo Tavernelli Arezzo Ativo 106 / 112 40% 1 02.04.2027 -
Miguel Falé Pacos de Ferreira Ativo 104 / 109 40% 1 02.04.2027 -
Ousmane Camara Castellón Ativo 130 / 120 40% 2 01.04.2027 -
Johnson Amuzu Berekum Chelsea Ativo 93 / 87 40% 1 01.04.2027 -
Alexandre Duville-Parsemain Moreirense Ativo 109 / 110 40% 2 31.03.2027 -
Gaël Nsombi US Creteil Ativo 101 / 106 40% 2 31.03.2027 -
Luca Orellano Monterrey Ativo 125 / 140 40% 6 29.03.2027 -
Vinicius Tobias Shakhtar Ativo 121 / 134 40% 1 29.03.2027 -
Luka Kulenović Heracles Ativo 112 / 113 40% 2 27.03.2027 -
Gonzalo Plata Dinamo Moscow Ativo 139 / 135 40% 1 27.03.2027 -
Jackson Muleka Konyaspor Ativo 125 / 123 40% 2 26.03.2027 -
Ramiro Sordo Santos Laguna Ativo 141 / 129 40% 1 26.03.2027 -
Rocco Vata Watford Ativo 132 / 128 40% 1 25.03.2027 -
Simone Ianesi Pianese Ativo 101 / 99 40% 1 25.03.2027 -
Jacen Russell-Rowe Toulouse FC Ativo 120 / 117 40% 1 23.03.2027 -
Mikey Johnston West Bromwich Albion Ativo 119 / 118 40% 2 21.03.2027 -
Ilias Sebaoui Sint-Truiden Ativo 123 / 124 40% 1 21.03.2027 -
Ezequiel Bullaude Santos Laguna Ativo 120 / 122 40% 1 20.03.2027 -
Haissem Hassan Bloemfontein Celtic Ativo 141 / 133 40% 1 19.03.2027 -
Jesús Garza Tigres Ativo 124 / 130 40% 1 19.03.2027 -
Nazar Voloshyn Dynamo Kyiv Ativo 135 / 128 40% 2 18.03.2027 -
Petter Nosa Dahl Rapid Wien Ativo 118 / 124 40% 1 18.03.2027 -
Brian Rodríguez Club America Ativo 142 / 128 40% 1 18.03.2027 -
Stiven Shpendi Empoli Ativo 132 / 126 40% 2 16.03.2027 -
García Pascual Cádiz Ativo 123 / 124 40% 2 14.03.2027 -
Tyreece Campbell Charlton Athletic Ativo 119 / 118 40% 1 14.03.2027 -
Bertuğ Yıldırım Basaksehir Ativo 141 / 128 40% 1 11.03.2027 -
Cristian Shpendi Cesena Ativo 133 / 136 40% 1 11.03.2027 -
Peter Federico Gornik Zabrze Ativo 144 / 120 40% 2 09.03.2027 -
Alex Robertson Cardiff City Ativo 123 / 127 40% 1 09.03.2027 -
Marquinhos Spartak Moscow Ativo 146 / 132 40% 2 06.03.2027 -
Mamadou Coulibaly Al Jazira Ativo 122 / 132 40% 1 06.03.2027 -
Adrian Benedyczak Kasimpasa Ativo 110 / 119 40% 2 05.03.2027 -
Bojan Radulović Huddersfield Town Ativo 125 / 115 40% 1 04.03.2027 -
Lassina Traoré Shakhtar Ativo 129 / 120 40% 1 04.03.2027 -
Brian Gutiérrez Guadalajara Ativo 114 / 134 40% 1 03.03.2027 -
Diego Pampín Granada Ativo 117 / 124 40% 1 03.03.2027 -
Efraín Álvarez Guadalajara Ativo 118 / 126 40% 2 01.03.2027 -
Kwame Poku Queens Park Rangers Ativo 132 / 120 40% 1 27.02.2027 -
Lewis McCann Fleetwood Town Ativo 104 / 98 40% 1 26.02.2027 -
Vinícius Lopes Santa Clara Ativo 130 / 117 40% 1 20.02.2027 -
Patrik Wålemark Lech Ativo 121 / 124 40% 1 20.02.2027 -
Abdoulie Ceesay St. Pauli Ativo 116 / 116 40% 2 15.02.2027 -
Terem Moffi Hamburger SV Ativo 141 / 125 40% 1 15.02.2027 -
Adriano Bertaccini Anderlecht Ativo 128 / 123 40% 5 13.02.2027 -
Rafiu Durosinmi Racing Genk Ativo 122 / 133 40% 1 13.02.2027 -
Iván Gil Eibar Ativo 119 / 123 40% 1 13.02.2027 -
Michy Fellaini KV Oostende Ativo 133 / 136 40% 3 11.02.2027 -
Josh Coburn Millwall Ativo 124 / 122 40% 1 11.02.2027 -
Tamble Monteiro Rio Ave Ativo 117 / 117 40% 1 10.02.2027 -
Yegor Golenkov Rostov Ativo 101 / 114 40% 1 10.02.2027 -
Juan-José Perea Zurich Ativo 115 / 122 40% 1 09.02.2027 -
Chiquinho Alverca Ativo 135 / 129 40% 1 08.02.2027 -
Mario Stroeykens Anderlecht Ativo 122 / 129 40% 1 07.02.2027 -
Pedro Vite Pumas UNAM Ativo 138 / 122 40% 1 07.02.2027 -
Yira Sor Racing Genk Ativo 121 / 121 40% 1 05.02.2027 -
Fidel Ambríz Monterrey Ativo 116 / 128 40% 1 05.02.2027 -
Ozziel Herrera Tigres Ativo 111 / 133 40% 1 03.02.2027 -
Derry Scherhant SC Freiburg Ativo 122 / 129 40% 1 01.02.2027 -
Alexander Røssing-Lelesiit Hamburger SV Ativo 122 / 120 55% 1 25.01.2027 -
Fabian Rieder FC Augsburg Ativo 126 / 131 40% 1 31.12.2026 -
Nacer Tielemans Mouscron Ativo 124 / 135 40% 1 31.12.2026 -
Louis Mouton Angers SCO Ativo 128 / 133 40% 2 30.12.2026 -
Thierry Rendall Correia Venezia Ativo 132 / 141 40% 1 30.12.2026 -
Chupete Málaga Ativo 132 / 127 40% 1 27.12.2026 -
Israel Reyes Club America Ativo 156 / 140 40% 3 26.12.2026 -
Brenner Vasco da Gama Ativo 132 / 130 40% 1 26.12.2026 -
Richard Koné Queens Park Rangers Ativo 117 / 124 40% 2 24.12.2026 -
Luciano Gondou CSKA Moscow Ativo 137 / 122 40% 1 24.12.2026 -
Juan Manuel Boselli Krasnodar Ativo 117 / 121 40% 2 19.12.2026 -
Alexander Díaz Deportivo Riestra Ativo 121 / 116 40% 1 19.12.2026 -
Matteo di Giusto Luzern Ativo 133 / 126 40% 3 18.12.2026 -
Kevin Álvarez Club America Ativo 120 / 131 40% 1 17.12.2026 -
Jordan Holsgrove Estoril Praia Ativo 132 / 127 40% 1 17.12.2026 -
José Manuel López Palmeiras Ativo 141 / 130 40% 3 12.12.2026 -
Juan Carlos Arana Racing Santander Ativo 120 / 126 40% 1 12.12.2026 -
Marlon Gomes Shakhtar Ativo 128 / 138 40% 2 11.12.2026 -
Sebastián Cáceres Club America Ativo 143 / 133 40% 1 11.12.2026 -
Danilo Botafogo Ativo 134 / 137 40% 2 09.12.2026 -
Ilay Camara Anderlecht Ativo 135 / 127 40% 1 09.12.2026 -
Luke McNally Bristol City Ativo 122 / 127 40% 1 05.12.2026 -
Metinho Basel Ativo 137 / 132 40% 1 05.12.2026 -
Efraín Álvarez Guadalajara Perdido 121 / 133 40% 1 02.12.2026 -
Jalen Blesa Rio Ave Ativo 114 / 114 40% 1 02.12.2026 -
Liam Varela Veracruz Ativo 141 / 128 40% 1 01.12.2026 -
Hércules Fluminense Ativo 125 / 129 40% 1 01.12.2026 -
Gustavo Mantuan Zenit Ativo 122 / 133 40% 1 29.11.2026 -
Martinelli Fluminense Ativo 135 / 141 40% 1 27.11.2026 -
Lorenzo Amatucci Deportivo La Coruña Ativo 121 / 132 40% 1 27.11.2026 -
Danil Glebov Dinamo Moscow Ativo 125 / 121 40% 1 26.11.2026 -
Joaquim Tigres Ativo 145 / 132 40% 1 20.11.2026 -
Rodrigo Huescas FC Copenhagen Ativo 133 / 135 40% 1 19.11.2026 -
Gabriel Sara Galatasaray Ativo 131 / 144 40% 1 19.11.2026 -
Josias Lukembila Sion Ativo 110 / 119 40% 1 17.11.2026 -
Dejan Djokic Vaduz Ativo 101 / 100 40% 1 15.11.2026 -
Philippe Keny Zurich Ativo 130 / 122 40% 1 15.11.2026 -
Ilyas Chouaref Sion Ativo 129 / 123 40% 1 12.11.2026 -
Flavius Daniliuc Basel Ativo 130 / 129 40% 2 09.11.2026 -
Aidan Morris Middlesbrough Ativo 137 / 131 40% 1 04.11.2026 -